createdAt,value
2023-02-04T00:00:22.872Z,97394.91
2023-02-04T00:03:15.335Z,97390.45
2023-02-04T00:05:48.212Z,97387.69
2023-02-04T00:08:23.636Z,97383.95
2023-02-04T00:10:59.164Z,97384.64
2023-02-04T00:13:34.115Z,97383.45
2023-02-04T00:16:07.376Z,97383.81
2023-02-04T00:18:39.930Z,97384.21
2023-02-04T00:21:12.404Z,97385.55
2023-02-04T00:23:45.127Z,97388.35
2023-02-04T00:26:17.965Z,97392.67
2023-02-04T00:28:50.270Z,97398.76
2023-02-04T00:31:22.628Z,97409.98
2023-02-04T00:33:55.057Z,97420.17
2023-02-04T00:36:27.411Z,97428.60
2023-02-04T00:38:59.869Z,97434.92
2023-02-04T00:41:32.489Z,97436.28
2023-02-04T00:44:05.425Z,97439.48
2023-02-04T00:46:37.723Z,97441.59
2023-02-04T00:49:10.938Z,97441.87
2023-02-04T00:51:46.729Z,97445.98
2023-02-04T00:54:19.236Z,97444.86
2023-02-04T00:56:54.403Z,97456.05
2023-02-04T00:59:27.061Z,97458.39
2023-02-04T01:02:02.542Z,97456.70
2023-02-04T01:04:34.968Z,97451.79
2023-02-04T01:07:07.392Z,97453.16
2023-02-04T01:09:39.849Z,97463.21
2023-02-04T01:12:12.426Z,97456.77
2023-02-04T01:14:44.821Z,97454.90
2023-02-04T01:17:18.553Z,97451.87
2023-02-04T01:19:52.381Z,97450.70
2023-02-04T01:22:25.969Z,97448.10
2023-02-04T01:24:58.592Z,97449.90
2023-02-04T01:27:47.823Z,97443.91
2023-02-04T01:30:20.848Z,97439.90
2023-02-04T01:32:53.253Z,97440.39
2023-02-04T01:35:29.275Z,97451.34
2023-02-04T01:38:05.040Z,97449.13
2023-02-04T01:40:37.977Z,97451.38
2023-02-04T01:43:13.831Z,97456.14
2023-02-04T01:45:49.770Z,97450.56
2023-02-04T01:48:24.041Z,97460.46
2023-02-04T01:51:03.355Z,97462.70
2023-02-04T01:53:40.175Z,97464.46
2023-02-04T01:56:20.200Z,97459.16
2023-02-04T01:58:58.959Z,97466.42
2023-02-04T02:01:42.027Z,97468.08
2023-02-04T02:04:19.960Z,97470.30
2023-02-04T02:06:57.351Z,97478.02
2023-02-04T02:09:33.094Z,97482.52
2023-02-04T02:12:12.084Z,97487.33
2023-02-04T02:14:48.033Z,97487.87
2023-02-04T02:17:20.486Z,97488.30
2023-02-04T02:19:56.688Z,97489.33
2023-02-04T02:22:35.047Z,97496.69
2023-02-04T02:25:15.567Z,97499.77
2023-02-04T02:27:49.046Z,97505.54
2023-02-04T02:30:23.020Z,97514.09
2023-02-04T02:32:56.013Z,97515.83
2023-02-04T02:35:31.714Z,97515.73
2023-02-04T02:38:04.984Z,97523.61
2023-02-04T02:40:37.980Z,97535.65
2023-02-04T02:43:19.119Z,97540.76
2023-02-04T02:45:51.986Z,97543.48
2023-02-04T02:48:24.569Z,97552.89
2023-02-04T02:51:00.983Z,97557.17
2023-02-04T02:53:34.144Z,97568.85
2023-02-04T02:56:16.277Z,97585.56
2023-02-04T02:58:52.170Z,97600.01
2023-02-04T03:01:24.664Z,97610.20
2023-02-04T03:04:02.288Z,97628.70
2023-02-04T03:06:37.707Z,97648.86
2023-02-04T03:09:10.239Z,97663.02
2023-02-04T03:11:51.742Z,97674.85
2023-02-04T03:14:33.445Z,97692.61
2023-02-04T03:17:09.738Z,97713.44
2023-02-04T03:19:42.791Z,97725.36
2023-02-04T03:22:16.021Z,97745.10
2023-02-04T03:24:52.173Z,97757.95
2023-02-04T03:27:26.275Z,97771.17
2023-02-04T03:30:08.835Z,97789.65
2023-02-04T03:32:42.568Z,97806.40
2023-02-04T03:35:20.838Z,97823.54
2023-02-04T03:37:57.024Z,97850.50
2023-02-04T03:40:30.529Z,97870.20
2023-02-04T03:43:06.044Z,97880.79
2023-02-04T03:45:45.311Z,97894.79
2023-02-04T03:48:23.706Z,97909.98
2023-02-04T03:50:59.182Z,97930.27
2023-02-04T03:53:31.861Z,97941.92
2023-02-04T03:56:07.295Z,97957.53
2023-02-04T03:58:42.250Z,97972.59
2023-02-04T04:01:18.833Z,97992.60
2023-02-04T04:03:51.245Z,98013.04
2023-02-04T04:06:25.241Z,98027.58
2023-02-04T04:09:01.118Z,98041.02
2023-02-04T04:11:33.504Z,98050.95
2023-02-04T04:14:05.924Z,98059.41
2023-02-04T04:16:39.460Z,98071.79
2023-02-04T04:19:13.696Z,98087.27
2023-02-04T04:21:46.097Z,98099.81
2023-02-04T04:24:18.693Z,98118.25
2023-02-04T04:26:51.031Z,98135.54
2023-02-04T04:29:25.328Z,98144.79
2023-02-04T04:31:57.932Z,98164.90
2023-02-04T04:34:31.492Z,98184.46
2023-02-04T04:37:07.216Z,98199.06
2023-02-04T04:39:42.583Z,98212.51
2023-02-04T04:42:21.616Z,98224.16
2023-02-04T04:44:56.523Z,98239.34
2023-02-04T04:47:32.436Z,98253.65
2023-02-04T04:50:05.041Z,98280.55
2023-02-04T04:52:40.682Z,98294.14
2023-02-04T04:55:15.832Z,98305.63
2023-02-04T04:57:51.050Z,98317.59
2023-02-04T05:00:29.832Z,98330.16
2023-02-04T05:03:09.942Z,98343.32
2023-02-04T05:05:52.216Z,98362.75
2023-02-04T05:08:33.033Z,98383.92
2023-02-04T05:11:10.073Z,98397.48
2023-02-04T05:13:49.135Z,98410.52
2023-02-04T05:16:21.829Z,98425.13
2023-02-04T05:19:00.817Z,98437.48
2023-02-04T05:21:37.139Z,98453.81
2023-02-04T05:24:09.733Z,98469.23
2023-02-04T05:26:42.145Z,98487.38
2023-02-04T05:29:17.951Z,98496.75
2023-02-04T05:31:51.969Z,98512.48
2023-02-04T05:34:25.599Z,98522.60
2023-02-04T05:37:01.953Z,98534.98
2023-02-04T05:39:43.397Z,98549.54
2023-02-04T05:42:17.867Z,98565.48
2023-02-04T05:44:51.290Z,98580.53
2023-02-04T05:47:23.723Z,98592.13
2023-02-04T05:49:56.500Z,98609.06
2023-02-04T05:52:32.353Z,98617.19
2023-02-04T05:55:04.939Z,98625.65
2023-02-04T05:57:42.112Z,98634.99
2023-02-04T06:00:17.114Z,98656.80
2023-02-04T06:02:50.133Z,98672.19
2023-02-04T06:05:25.670Z,98680.16
2023-02-04T06:08:00.964Z,98695.20
2023-02-04T06:10:36.721Z,98707.33
2023-02-04T06:13:17.366Z,98719.44
2023-02-04T06:15:55.591Z,98725.51
2023-02-04T06:18:36.771Z,98738.27
2023-02-04T06:21:18.106Z,98750.73
2023-02-04T06:23:57.851Z,98760.41
2023-02-04T06:26:30.245Z,98763.35
2023-02-04T06:29:02.634Z,98771.33
2023-02-04T06:31:39.253Z,98786.23
2023-02-04T06:34:18.048Z,98799.02
2023-02-04T06:36:54.257Z,98805.91
2023-02-04T06:39:28.020Z,98814.58
2023-02-04T06:42:03.783Z,98820.98
2023-02-04T06:44:43.316Z,98838.73
2023-02-04T06:47:22.457Z,98848.74
2023-02-04T06:49:58.337Z,98857.73
2023-02-04T06:52:30.818Z,98866.20
2023-02-04T06:55:03.140Z,98872.61
2023-02-04T06:57:35.451Z,98882.98
2023-02-04T07:00:10.447Z,98890.91
2023-02-04T07:02:46.396Z,98895.08
2023-02-04T07:05:18.940Z,98903.34
2023-02-04T07:07:54.605Z,98908.21
2023-02-04T07:10:27.034Z,98918.02
2023-02-04T07:12:59.494Z,98928.17
2023-02-04T07:15:31.807Z,98934.38
2023-02-04T07:18:06.600Z,98945.45
2023-02-04T07:20:39.063Z,98959.11
2023-02-04T07:23:11.485Z,98972.54
2023-02-04T07:25:44.285Z,98983.15
2023-02-04T07:28:16.634Z,98989.99
2023-02-04T07:30:49.213Z,98999.47
2023-02-04T07:33:21.671Z,99004.48
2023-02-04T07:35:54.038Z,99018.80
2023-02-04T07:38:26.517Z,99026.70
2023-02-04T07:40:59.202Z,99031.29
2023-02-04T07:43:33.170Z,99037.80
2023-02-04T07:46:08.107Z,99036.55
2023-02-04T07:48:40.447Z,99041.94
2023-02-04T07:51:12.677Z,99050.77
2023-02-04T07:53:44.982Z,99061.69
2023-02-04T07:56:17.223Z,99070.17
2023-02-04T07:58:49.647Z,99074.81
2023-02-04T08:01:22.010Z,99082.41
2023-02-04T08:03:54.619Z,99080.98
2023-02-04T08:06:26.926Z,99088.29
2023-02-04T08:08:59.215Z,99096.92
2023-02-04T08:11:31.456Z,99104.31
2023-02-04T08:14:06.239Z,99114.95
2023-02-04T08:16:40.786Z,99125.34
2023-02-04T08:19:19.034Z,99129.56
2023-02-04T08:21:52.166Z,99135.93
2023-02-04T08:24:24.552Z,99131.63
2023-02-04T08:26:58.359Z,99136.51
2023-02-04T08:29:30.633Z,99139.11
2023-02-04T08:32:04.904Z,99143.17
2023-02-04T08:34:37.129Z,99143.44
2023-02-04T08:37:09.522Z,99147.52
2023-02-04T08:39:46.350Z,99157.09
2023-02-04T08:42:18.737Z,99161.27
2023-02-04T08:44:52.796Z,99159.92
2023-02-04T08:47:25.260Z,99156.27
2023-02-04T08:49:57.641Z,99152.68
2023-02-04T08:52:31.135Z,99151.64
2023-02-04T08:55:06.769Z,99158.98
2023-02-04T08:57:42.944Z,99145.67
2023-02-04T09:00:19.472Z,99153.73
2023-02-04T09:02:51.902Z,99157.93
2023-02-04T09:05:24.288Z,99153.63
2023-02-04T09:07:56.671Z,99186.23
2023-02-04T09:10:29.238Z,99194.48
2023-02-04T09:13:02.389Z,99171.17
2023-02-04T09:15:35.162Z,99165.67
2023-02-04T09:18:19.379Z,99176.36
2023-02-04T09:20:53.412Z,99184.27
2023-02-04T09:23:32.562Z,99187.49
2023-02-04T09:26:08.172Z,99198.64
2023-02-04T09:28:41.865Z,99210.96
2023-02-04T09:31:21.884Z,99219.88
2023-02-04T09:34:02.576Z,99232.91
2023-02-04T09:36:42.887Z,99255.15
2023-02-04T09:39:15.260Z,99247.52
2023-02-04T09:41:47.862Z,99274.73
2023-02-04T09:44:24.904Z,99301.05
2023-02-04T09:47:00.290Z,99295.31
2023-02-04T09:49:33.814Z,99259.02
2023-02-04T09:52:14.130Z,99256.38
2023-02-04T09:54:47.860Z,99256.85
2023-02-04T09:57:22.663Z,99288.39
2023-02-04T09:59:59.486Z,99275.46
2023-02-04T10:02:31.960Z,99257.02
2023-02-04T10:05:04.783Z,99241.83
2023-02-04T10:07:37.167Z,99246.95
2023-02-04T10:10:18.383Z,99247.30
2023-02-04T10:12:52.631Z,99258.57
2023-02-04T10:15:25.913Z,99254.33
2023-02-04T10:18:04.943Z,99272.23
2023-02-04T10:20:40.803Z,99285.73
2023-02-04T10:23:17.273Z,99265.69
2023-02-04T10:25:49.914Z,99240.38
2023-02-04T10:28:22.612Z,99250.33
2023-02-04T10:30:55.104Z,99261.03
2023-02-04T10:33:27.802Z,99291.36
2023-02-04T10:36:00.634Z,99295.83
2023-02-04T10:38:33.146Z,99317.02
2023-02-04T10:41:06.933Z,99324.73
2023-02-04T10:43:39.369Z,99311.23
2023-02-04T10:46:11.942Z,99300.86
2023-02-04T10:48:44.588Z,99284.66
2023-02-04T10:51:17.679Z,99285.70
2023-02-04T10:54:07.652Z,99236.30
2023-02-04T10:56:40.269Z,99212.52
2023-02-04T10:59:24.004Z,99210.67
2023-02-04T11:01:58.594Z,99188.00
2023-02-04T11:04:31.600Z,99198.10
2023-02-04T11:07:09.595Z,99223.23
2023-02-04T11:09:48.036Z,99241.52
2023-02-04T11:12:37.316Z,99254.67
2023-02-04T11:15:41.912Z,99272.60
2023-02-04T11:18:27.758Z,99279.58
2023-02-04T11:21:01.723Z,99300.91
2023-02-04T11:23:37.246Z,99320.44
2023-02-04T11:26:17.595Z,99307.34
2023-02-04T11:29:07.040Z,99296.12
2023-02-04T11:32:01.530Z,99293.71
2023-02-04T11:34:47.471Z,99289.36
2023-02-04T11:37:35.199Z,99287.45
2023-02-04T11:40:24.518Z,99293.06
2023-02-04T11:43:02.574Z,99274.43
2023-02-04T11:45:37.352Z,99282.54
2023-02-04T11:48:16.463Z,99301.52
2023-02-04T11:50:59.497Z,99302.30
2023-02-04T11:53:38.623Z,99306.05
2023-02-04T11:56:20.275Z,99310.15
2023-02-04T11:58:55.177Z,99316.02
2023-02-04T12:01:32.114Z,99338.00
2023-02-04T12:04:07.213Z,99354.40
2023-02-04T12:06:42.054Z,99366.03
2023-02-04T12:09:27.989Z,99374.82
2023-02-04T12:12:01.963Z,99376.84
2023-02-04T12:14:37.327Z,99384.52
2023-02-04T12:17:19.401Z,99384.27
2023-02-04T12:19:50.127Z,99395.14
2023-02-04T12:22:22.485Z,99404.36
2023-02-04T12:24:54.844Z,99407.45
2023-02-04T12:27:27.216Z,99409.55
2023-02-04T12:29:59.434Z,99405.73
2023-02-04T12:32:31.976Z,99406.33
2023-02-04T12:35:04.634Z,99399.95
2023-02-04T12:37:36.976Z,99401.05
2023-02-04T12:40:11.487Z,99404.86
2023-02-04T12:42:43.830Z,99411.14
2023-02-04T12:45:18.559Z,99414.48
2023-02-04T12:47:51.270Z,99426.72
2023-02-04T12:50:23.982Z,99439.13
2023-02-04T12:52:58.237Z,99450.25
2023-02-04T12:55:31.655Z,99456.05
2023-02-04T12:58:04.283Z,99453.44
2023-02-04T13:00:36.676Z,99448.05
2023-02-04T13:03:08.982Z,99452.95
2023-02-04T13:05:41.332Z,99460.64
2023-02-04T13:08:13.595Z,99467.86
2023-02-04T13:10:52.091Z,99475.41
2023-02-04T13:13:25.254Z,99481.41
2023-02-04T13:15:57.482Z,99494.14
2023-02-04T13:18:34.068Z,99510.63
2023-02-04T13:21:06.983Z,99522.20
2023-02-04T13:23:39.314Z,99525.14
2023-02-04T13:26:11.819Z,99523.02
2023-02-04T13:28:49.473Z,99527.36
2023-02-04T13:31:22.897Z,99527.02
2023-02-04T13:33:55.346Z,99530.05
2023-02-04T13:36:30.500Z,99531.20
2023-02-04T13:39:05.647Z,99530.36
2023-02-04T13:41:38.290Z,99530.13
2023-02-04T13:44:10.810Z,99530.17
2023-02-04T13:46:43.339Z,99537.20
2023-02-04T13:49:15.945Z,99540.48
2023-02-04T13:51:48.265Z,99546.58
2023-02-04T13:54:21.052Z,99543.98
2023-02-04T13:56:55.712Z,99543.95
2023-02-04T13:59:29.574Z,99548.38
2023-02-04T14:02:02.476Z,99557.98
2023-02-04T14:04:36.678Z,99562.69
2023-02-04T14:07:12.620Z,99567.70
2023-02-04T14:09:45.025Z,99564.55
2023-02-04T14:12:17.392Z,99573.57
2023-02-04T14:14:49.745Z,99569.11
2023-02-04T14:17:22.084Z,99567.27
2023-02-04T14:19:54.795Z,99571.94
2023-02-04T14:22:27.165Z,99574.73
2023-02-04T14:25:02.221Z,99572.41
2023-02-04T14:27:35.509Z,99575.15
2023-02-04T14:30:09.273Z,99580.06
2023-02-04T14:32:41.865Z,99579.51
2023-02-04T14:35:15.103Z,99583.14
2023-02-04T14:37:47.739Z,99577.86
2023-02-04T14:40:21.416Z,99581.58
2023-02-04T14:42:54.030Z,99584.70
2023-02-04T14:45:29.203Z,99587.23
2023-02-04T14:48:04.491Z,99589.16
2023-02-04T14:50:37.284Z,99593.16
2023-02-04T14:53:09.608Z,99589.94
2023-02-04T14:55:41.921Z,99587.66
2023-02-04T14:58:18.495Z,99594.84
2023-02-04T15:00:51.156Z,99600.80
2023-02-04T15:03:24.040Z,99600.18
2023-02-04T15:05:58.940Z,99602.17
2023-02-04T15:08:32.867Z,99602.73
2023-02-04T15:11:05.662Z,99613.04
2023-02-04T15:18:35.135Z,99610.98
2023-02-04T15:26:01.491Z,99618.52
2023-02-04T15:28:34.002Z,99622.57
2023-02-04T15:31:14.148Z,99629.88
2023-02-04T15:33:49.787Z,99636.55
2023-02-04T15:37:53.169Z,99639.73
2023-02-04T15:44:49.601Z,99643.73
2023-02-04T15:52:55.898Z,99653.21
2023-02-04T15:56:00.274Z,99659.30
2023-02-04T15:58:33.084Z,99658.77
2023-02-04T16:01:29.680Z,99662.23
2023-02-04T16:04:02.393Z,99667.95
2023-02-04T16:11:27.838Z,99677.45
2023-02-04T16:14:06.298Z,99675.86
2023-02-04T16:16:38.705Z,99673.98
2023-02-04T16:19:17.277Z,99672.14
2023-02-04T16:21:52.841Z,99674.61
2023-02-04T16:25:21.743Z,99671.98
2023-02-04T16:28:35.625Z,99675.11
2023-02-04T16:31:11.083Z,99672.86
2023-02-04T16:34:33.849Z,99662.30
2023-02-04T16:37:08.037Z,99661.95
2023-02-04T16:40:53.073Z,99662.30
2023-02-04T16:43:25.985Z,99667.79
2023-02-04T16:45:58.336Z,99671.23
2023-02-04T16:48:37.557Z,99673.05
2023-02-04T16:51:13.151Z,99675.65
2023-02-04T16:54:42.089Z,99680.65
2023-02-04T17:01:47.272Z,99683.98
2023-02-04T17:04:26.657Z,99690.55
2023-02-04T17:12:42.075Z,99694.36
2023-02-04T17:15:35.895Z,99696.09
2023-02-04T17:18:15.424Z,99703.05
2023-02-04T17:20:47.756Z,99702.55
2023-02-04T17:23:29.491Z,99704.32
2023-02-04T17:31:18.057Z,99708.15
2023-02-04T17:34:41.781Z,99711.44
2023-02-04T17:47:26.698Z,99704.42
2023-02-04T17:54:51.500Z,99715.98
2023-02-04T17:58:56.173Z,99715.66
2023-02-04T18:01:37.359Z,99722.02
2023-02-04T18:04:13.747Z,99724.80
2023-02-04T18:06:51.934Z,99723.42
2023-02-04T18:09:24.226Z,99724.80
2023-02-04T18:11:56.516Z,99726.70
2023-02-04T18:14:32.753Z,99730.83
2023-02-04T18:17:17.125Z,99733.90
2023-02-04T18:19:49.608Z,99733.50
2023-02-04T18:22:25.047Z,99732.77
2023-02-04T18:24:59.113Z,99734.13
2023-02-04T18:27:37.333Z,99731.92
2023-02-04T18:30:21.306Z,99728.50
2023-02-04T18:32:55.550Z,99728.17
2023-02-04T18:35:44.481Z,99731.16
2023-02-04T18:38:32.298Z,99731.16
2023-02-04T18:41:24.903Z,99727.84
2023-02-04T18:44:17.641Z,99729.55
2023-02-04T18:46:50.602Z,99730.06
2023-02-04T18:49:42.619Z,99731.80
2023-02-04T19:06:40.590Z,99752.18
2023-02-04T19:12:45.954Z,99764.86
2023-02-04T19:20:35.582Z,99769.02
2023-02-04T19:28:07.345Z,99770.86
2023-02-04T19:34:43.860Z,99773.81
2023-02-04T19:44:52.375Z,99785.23
2023-02-04T19:48:47.295Z,99784.09
2023-02-04T19:57:10.328Z,99788.73
2023-02-04T19:59:50.271Z,99794.63
2023-02-04T20:31:03.241Z,99816.05
2023-02-04T20:50:02.455Z,99826.38
2023-02-04T20:53:26.246Z,99823.25
2023-02-04T21:09:04.432Z,99834.52
2023-02-04T21:12:04.302Z,99837.45
2023-02-04T21:14:36.792Z,99835.39
2023-02-04T21:17:41.791Z,99833.54
2023-02-04T21:21:23.240Z,99836.52
2023-02-04T21:24:03.946Z,99841.04
2023-02-04T21:27:26.062Z,99840.02
2023-02-04T21:30:04.878Z,99845.05
2023-02-04T21:37:58.826Z,99857.11
2023-02-04T21:41:26.670Z,99856.08
2023-02-04T21:48:50.580Z,99862.29
2023-02-04T21:52:23.102Z,99860.56
2023-02-04T22:00:33.867Z,99871.02
2023-02-04T22:12:37.967Z,99885.31
2023-02-04T22:16:07.311Z,99889.98
2023-02-04T22:23:29.284Z,99903.60
2023-02-04T22:30:32.739Z,99916.20
2023-02-04T22:33:05.180Z,99913.95
2023-02-04T22:39:47.800Z,99918.59
2023-02-04T22:42:20.257Z,99921.16
2023-02-04T22:44:59.206Z,99919.27
2023-02-04T22:47:33.390Z,99923.05
2023-02-04T22:50:12.574Z,99928.05
2023-02-04T22:52:49.133Z,99925.80
2023-02-04T22:59:53.979Z,99932.03
2023-02-04T23:02:26.381Z,99935.84
2023-02-04T23:04:58.869Z,99936.17
